AirNav   Air Wisconsin pilot careers
 
 322 users online  

C97 Lowell Airport
Lowell, Indiana, USA

GOING TO LOWELL?


FAA INFORMATION EFFECTIVE 01 FEBRUARY 2018

Location

FAA Identifier: C97
Lat/Long: 41-13-48.5000N / 087-30-27.7000W
41-13.808333N / 087-30.461667W
41.2301389 / -87.5076944
(estimated)
Elevation: 675 ft. / 206 m (estimated)
Variation: 01W (1985)
From city: 5 miles SW of LOWELL, IN
Time zone: UTC -6 (UTC -5 during Daylight Saving Time)
Zip code: 46356

Airport Operations

Airport use: Open to the public
Activation date: 08/1980
Control tower: no
ARTCC: CHICAGO CENTER
FSS: TERRE HAUTE FLIGHT SERVICE STATION
NOTAMs facility: HUF (NOTAM-D service available)
Attendance: 
Wind indicator: yes
Segmented circle: yes
Landing fee: yes

Airport Communications

CTAF: 122.9
WX AWOS-AV at C56 (12 nm NW): 119.125 (708-534-5256)
WX AWOS-3 at IKK (18 nm SW): 128.475 (815-939-4044)
WX AWOS-3 at IGQ (18 nm N): 119.275 (708-895-9526)
  • APCH/DEP SERVICE PROVIDED BY CHICAGO ARTCC ON FREQS 132.95/272.7 (CHICAGO HEIGHTS RCAG).

Nearby radio navigation aids

VOR radial/distance  VOR name  Freq  Var
EONr099/13.0PEOTONE VORTAC113.2002E
CGTr168/17.0CHICAGO HEIGHTS VORTAC114.2002E
IKKr059/18.1KANKAKEE VOR/DME111.6000E
OXIr262/39.1KNOX VOR/DME115.6000E

 
NDB name  Hdg/Dist  Freq  Var  ID
LA PORTE247/36.935603WIUL .. ..- .-..

Airport Services

Fuel available: 100LL
Parking: hangars and tiedowns
Airframe service: MAJOR
Powerplant service: MAJOR

Runway Information

Runway 18/36

Dimensions: 3041 x 100 ft. / 927 x 30 m
Surface: turf, in good condition
Runway edge markings: RY 18/36 THLDS MKD WITH WHITE BARREL HALVES & LGT FIXTURES.
RUNWAY 18  RUNWAY 36
Latitude: 41-14.059050N41-13.558335N
Longitude: 087-30.461438W087-30.460643W
Elevation: 671.8 ft.650.0 ft.
Traffic pattern: rightleft
Runway heading: 181 magnetic, 180 true001 magnetic, 360 true
Displaced threshold: 555 ft.no
Obstructions: 70 ft. tree, 195 ft. from runway, 125 ft. right of centerline, 2:1 slope to clear
RY 18 APCH RATIO 10:1 AT DSPLCD THLD.
5 ft. crops, 131 ft. from runway, 26:1 slope to clear

Airport Ownership and Management from official FAA records

Ownership: Privately-owned
Owner: DONALD E. BAILEY
14705 BELSHAW RD.
LOWELL, IN 46356
Phone (219) 614-6633
Manager: KEVIN BAILEY
14705 BELSHAW RD
LOWELL, IN 46356
Phone (219) 614-6633

Airport Operational Statistics

Aircraft based on the field: 11
Single engine airplanes: 11
    
Aircraft operations: avg 37/week *
95% local general aviation
5% transient general aviation
* for 12-month period ending 31 December 2014

Additional Remarks

SNOW REMOVAL & MOWING WITH LARGE TRACTOR .
DEER ON & INVOF ARPT.
RWY 18/36 SEASONAL CROPS 75 FT E AND 87 FT W OF CNTRLINE.
CALL BEFORE LANDING FOR FUEL AND SERVICES 219-613-4588

Instrument Procedures

There are no published instrument procedures at C97.

Some nearby airports with instrument procedures:

C56 - Bult Field Airport (12 nm NW)
KIKK - Greater Kankakee Airport (18 nm SW)
05C - Griffith-Merrillville Airport (18 nm N)
KIGQ - Lansing Municipal Airport (18 nm N)
3HO - Hobart Sky Ranch Airport (22 nm NE)
 
Loc | Ops | Rwys | IFR | FBO | Links
Com | Nav | Svcs | Stats | Notes

AirNav Hotels Sweepstakes
 
Area around C97 (Lowell Airport)
 
Road maps at: MapQuest Bing Google
 
Aerial photo
WARNING: Photo may not be current or correct
Aerial photo of C97 (Lowell Airport)
Photo by Arthur Urban
Photo taken 22-Aug-2015

Do you have a better or more recent aerial photo of Lowell Airport that you would like to share? If so, please send us your photo.

 
Sectional chart

 
Airport distance calculator
Flying to Lowell Airport? Find the distance to fly.

From to C97

Sunrise and sunset
Times for 21-Feb-2018
 Local
(UTC-6)
 Zulu
(UTC)
Morning civil twilight06:0912:09
Sunrise06:3712:37
Sunset17:3023:30
Evening civil twilight17:5823:58

Current date and time
Zulu (UTC)  21-Feb-2018 09:01:16
Local (UTC-6)  21-Feb-2018 03:01:16
 
METAR
KIGQ 
18nm N 
210855Z AUTO 33007KT 5SM RA SCT009 BKN022 OVC045 01/01 A3027 RMK AO2 P0006 60024 T00070007
KIKK 
18nm SW 
210855Z AUTO 33009KT 7SM -RA BKN009 BKN013 OVC023 00/00 A3028 RMK AO2 P0003 60018 T00001002
KRZL 
22nm SE 
210855Z AUTO 32010G17KT 4SM -RA BKN007 OVC011 02/00 A3024 RMK AO2 P0007
KGYY 
24nm N 
210855Z AUTO 35014G19KT 4SM -SN BKN009 OVC016 01/01 A3028 RMK AO2 P0006 60023 T00070007
KVPZ 
26nm NE 
210856Z AUTO 34012G19KT 4SM -RA BR OVC008 01/00 A3026 RMK AO2 CIG 007V011 SLP247 P0006 60030 T00110000 53036 $
4IS3 
34nm N 
SuperAWOS
210855Z AUTO VRB06KT 7SM 01/M01 A3027
KJOT 
34nm NW 
210855Z AUTO 32004KT 7SM -SN OVC016 00/M01 A3029 RMK AO2 60002 T00021007
KMDW 
35nm N 
210853Z 34010KT 5SM BR OVC013 01/M01 A3026 RMK AO2 RAE46FZRAB46E53 SLP253 P0002 60012 I1000 I3000 T00061011 50027
KLOT 
35nm NW 
210855Z AUTO 34008KT 10SM OVC014 00/M02 A3028 RMK AO2 60002 T10031018
TAF
KGYY 
24nm N 
210526Z 2106/2206 31012G18KT 6SM -RA SCT007 OVC012 FM210800 32012G18KT 5SM -FZRAPL BR SCT007 OVC012 FM211100 33012G18KT P6SM BKN015 FM211400 34012KT P6SM BKN250 FM211900 01011KT P6SM FEW025 BKN200 FM220200 03010KT P6SM BKN150
NOTAMs
Click for the latest NOTAMs
NOTAMs are issued by the DoD/FAA and will open in a separate window not controlled by AirNav.

 

 
 

FBO, Fuel Providers, and Aircraft Ground Support

  
 Business Name 
 
 Contact 
 
 Services / Description 
 
Fuel Prices
 
Comments
  
Lowell Aviation 219-696-9603
no information available

If you are affiliated with Lowell Aviation and would like to show here your services, contact info, web link, logo, and more, click here
100LL
RA $3.60 
 Updated 22-Mar-2016
 
   write
RA=Restricted
Update Fuel Prices
 

Would you like to see your business listed on this page?

 If your business provides an interesting product or service to pilots, flight crews, aircraft, or users of the Lowell Airport, you should consider listing it here.  To start the listing process, click on the button below
 
Add a business
 

Other Pages about Lowell Airport

Update a link
 
Copyright © AirNav, LLC. All rights reserved. Privacy Policy  Contact